EW8242 Weather Reports


Display with metric or nautical units.
time (UTC)temp
F
wind
direction
speed
MPH
gust
MPH
rain 1hr
in
rain 24hr
in
rain mn
in
humidity
%
barometer
mb
20210508215053 51 0 0.0 0.0 0.00 0.00 0.00 75 1006.4
20210508214153 52 0 0.0 0.0 0.00 0.00 0.00 73 1006.5
20210508213253 52 0 0.0 0.0 0.00 0.00 0.00 75 1006.3
20210508212353 52 0 0.0 0.0 0.00 0.00 0.00 75 1006.2
20210508211453 51 0 0.0 0.0 0.00 0.00 0.00 76 1006.2
20210508210553 52 0 0.0 0.0 0.00 0.00 0.00 74 1006.2
20210508205653 52 0 0.0 0.0 0.00 0.00 0.00 73 1006.0
20210508204753 52 0 0.0 0.0 0.00 0.00 0.00 72 1006.1
20210508203853 52 0 0.0 0.0 0.00 0.00 0.00 72 1005.7
20210508202953 53 0 0.0 0.0 0.00 0.00 0.00 72 1005.8
20210508202053 53 0 0.0 0.0 0.00 0.00 0.00 72 1006.0
20210508201153 53 0 0.0 0.0 0.00 0.00 0.00 72 1005.7
20210508200253 54 0 0.0 0.0 0.00 0.00 0.00 69 1005.6
20210508195353 54 0 0.0 0.0 0.00 0.00 0.00 69 1005.6
20210508194453 54 0 0.0 0.0 0.00 0.00 0.00 69 1005.8
20210508193553 55 0 0.0 0.0 0.00 0.00 0.00 68 1005.6
20210508192653 55 0 0.0 0.0 0.00 0.00 0.00 67 1005.6
20210508191753 56 0 0.0 0.0 0.00 0.00 0.00 66 1005.6
20210508190853 56 0 0.0 0.0 0.00 0.00 0.00 66 1005.5
20210508185953 57 0 0.0 0.0 0.00 0.00 0.00 63 1005.6
20210508185053 57 0 0.0 0.0 0.00 0.00 0.00 62 1005.3
20210508184153 59 0 0.0 0.0 0.00 0.00 0.00 60 1005.3
20210508183253 61 0 0.0 0.0 0.00 0.00 0.00 52 1005.4
20210508182352 61 0 0.0 0.0 0.00 0.00 0.00 50 1005.3
20210508181452 62 0 0.0 0.0 0.00 0.00 0.00 49 1005.2
20210508180553 64 0 0.0 0.0 0.00 0.00 0.00 44 1005.3
20210508175652 65 0 0.0 0.0 0.00 0.00 0.00 44 1005.2
20210508174752 66 314 0.0 1.0 0.00 0.00 0.00 44 1005.2
20210508173853 66 353 0.0 1.0 0.00 0.00 0.00 42 1005.3
20210508172952 65 308 0.0 4.0 0.00 0.00 0.00 44 1005.1
20210508172052 66 0 0.0 0.0 0.00 0.00 0.00 42 1005.3
20210508171152 66 59 0.0 3.0 0.00 0.00 0.00 41 1005.2
20210508170252 67 292 0.0 4.0 0.00 0.00 0.00 42 1005.1
20210508165352 68 11 0.0 7.0 0.00 0.00 0.00 42 1005.2
20210508164452 67 45 0.0 7.0 0.00 0.00 0.00 41 1005.1
20210508163552 67 0 0.0 0.0 0.00 0.00 0.00 42 1005.0
20210508162652 65 0 0.0 0.0 0.00 0.00 0.00 45 1005.0
20210508161752 65 0 0.0 0.0 0.00 0.00 0.00 45 1005.2
20210508160852 65 1 0.0 1.0 0.00 0.00 0.00 43 1005.1
20210508155952 68 357 0.0 8.0 0.00 0.00 0.00 40 1005.1
20210508155052 68 337 2.0 7.0 0.00 0.00 0.00 39 1005.1
20210508154152 68 348 0.0 7.0 0.00 0.00 0.00 40 1005.2
20210508153252 67 269 0.0 4.0 0.00 0.00 0.00 41 1005.0
20210508152352 65 284 0.0 8.0 0.00 0.00 0.00 43 1005.4
20210508151452 65 327 0.0 10.0 0.00 0.00 0.00 43 1005.3
20210508150552 65 350 0.0 10.0 0.00 0.00 0.00 43 1005.0
20210508145652 66 356 0.0 11.0 0.00 0.00 0.00 42 1005.2
20210508144752 66 302 0.0 4.0 0.00 0.00 0.00 43 1005.2
20210508143852 66 286 0.0 6.0 0.00 0.00 0.00 42 1005.3
20210508142952 68 354 0.0 6.0 0.00 0.00 0.00 36 1005.4
20210508142052 68 308 0.0 6.0 0.00 0.00 0.00 35 1005.5
20210508141152 67 321 0.0 8.0 0.00 0.00 0.00 36 1005.5
20210508140252 67 313 4.0 8.0 0.00 0.00 0.00 38 1005.3
20210508135352 67 227 0.0 7.0 0.00 0.00 0.00 38 1005.4
20210508134452 67 298 0.0 2.0 0.00 0.00 0.00 37 1005.3
20210508133551 66 334 0.0 1.0 0.00 0.00 0.00 39 1005.6
20210508132652 64 228 0.0 5.0 0.00 0.00 0.00 42 1005.5
20210508131752 65 236 0.0 11.0 0.00 0.00 0.00 40 1005.7
20210508130851 66 268 0.0 8.0 0.00 0.00 0.00 38 1005.8
20210508125951 67 16 0.0 8.0 0.00 0.00 0.00 35 1005.9
20210508125052 69 330 0.0 6.0 0.00 0.00 0.00 34 1005.8
20210508124151 68 283 2.0 6.0 0.00 0.00 0.00 33 1005.9
20210508123251 68 51 0.0 8.0 0.00 0.00 0.00 33 1006.0
20210508122352 69 286 0.0 5.0 0.00 0.00 0.00 32 1006.2
20210508121451 68 0 0.0 0.0 0.00 0.00 0.00 33 1006.2
20210508120552 66 0 0.0 0.0 0.00 0.00 0.00 37 1006.1
20210508115651 65 270 0.0 1.0 0.00 0.00 0.00 38 1006.2
20210508114752 65 194 0.0 7.0 0.00 0.00 0.00 37 1006.2
20210508113851 65 0 0.0 0.0 0.00 0.00 0.00 37 1006.0
20210508112951 65 203 0.0 4.0 0.00 0.00 0.00 38 1006.1
20210508112051 66 178 0.0 8.0 0.00 0.00 0.00 37 1006.4
20210508111151 65 24 0.0 9.0 0.00 0.00 0.00 37 1006.4
20210508110251 65 349 0.0 8.0 0.00 0.00 0.00 36 1006.5
20210508105351 68 303 0.0 4.0 0.00 0.00 0.00 33 1006.3
20210508104451 69 0 0.0 0.0 0.00 0.00 0.00 32 1006.5
20210508103551 65 168 0.0 9.0 0.00 0.00 0.00 36 1006.9
20210508102651 65 335 0.0 9.0 0.00 0.00 0.00 37 1006.8
20210508101751 65 248 0.0 10.0 0.00 0.00 0.00 37 1007.0
20210508100851 65 242 0.0 8.0 0.00 0.00 0.00 38 1007.0
20210508095951 64 243 4.0 8.0 0.00 0.00 0.00 38 1007.0
20210508095051 63 284 2.0 8.0 0.00 0.00 0.00 38 1007.0
20210508094151 65 271 0.0 7.0 0.00 0.00 0.00 34 1007.0
20210508093251 65 37 0.0 3.0 0.00 0.00 0.00 34 1007.3
20210508092351 66 0 0.0 0.0 0.00 0.00 0.00 34 1007.1
20210508091451 64 0 0.0 0.0 0.00 0.00 0.00 35 1007.2
20210508090551 64 0 0.0 0.0 0.00 0.00 0.00 37 1007.1
20210508085651 61 0 0.0 0.0 0.00 0.00 0.00 42 1007.1
20210508084751 61 0 0.0 0.0 0.00 0.00 0.00 43 1007.2
20210508083851 61 0 0.0 0.0 0.00 0.00 0.00 42 1007.3
20210508082951 62 0 0.0 0.0 0.00 0.00 0.00 37 1007.2
20210508082051 62 0 0.0 0.0 0.00 0.00 0.00 37 1007.2
20210508081151 61 1 0.0 1.0 0.00 0.00 0.00 39 1007.2
20210508080251 60 223 0.0 6.0 0.00 0.00 0.00 41 1007.3
20210508075351 59 223 0.0 6.0 0.00 0.00 0.00 41 1007.1
20210508074450 59 225 0.0 4.0 0.00 0.00 0.00 41 1007.3
20210508073551 59 0 0.0 0.0 0.00 0.00 0.00 47 1006.6
20210508072650 58 270 0.0 1.0 0.00 0.00 0.00 46 1006.7
20210508071751 58 0 0.0 0.0 0.00 0.00 0.00 52 1006.9
20210508070851 58 0 0.0 0.0 0.00 0.00 0.00 57 1006.9
20210508065950 57 0 0.0 0.0 0.00 0.00 0.00 61 1006.9
20210508065050 55 0 0.0 0.0 0.00 0.00 0.00 62 1006.6
20210508064150 54 0 0.0 0.0 0.00 0.00 0.00 63 1006.8
20210508063250 53 0 0.0 0.0 0.00 0.00 0.00 63 1006.7
20210508062350 52 0 0.0 0.0 0.00 0.00 0.00 66 1006.7
20210508061450 52 0 0.0 0.0 0.00 0.00 0.00 66 1006.5
20210508060550 50 0 0.0 0.0 0.00 0.00 0.00 70 1006.4
20210508055650 50 0 0.0 0.0 0.00 0.00 0.00 70 1006.5
20210508054750 49 0 0.0 0.0 0.00 0.00 0.00 68 1006.4
20210508053850 49 0 0.0 0.0 0.00 0.00 0.00 66 1006.3
20210508052950 48 0 0.0 0.0 0.00 0.00 0.00 64 1006.2
20210508052050 48 0 0.0 0.0 0.00 0.00 0.00 64 1006.1
20210508051150 47 0 0.0 0.0 0.00 0.00 0.00 63 1006.0
20210508050250 47 0 0.0 0.0 0.00 0.00 0.00 63 1005.9
20210508045350 47 0 0.0 0.0 0.00 0.00 0.00 62 1005.9
20210508044450 46 0 0.0 0.0 0.00 0.00 0.00 61 1005.6
20210508043550 45 0 0.0 0.0 0.00 0.00 0.00 61 1005.4
20210508042650 45 0 0.0 0.0 0.00 0.00 0.00 59 1005.3
20210508041750 46 0 0.0 0.0 0.00 0.00 0.00 56 1005.3
20210508040850 45 0 0.0 0.0 0.00 0.00 0.00 56 1005.2
20210508035950 45 0 0.0 0.0 0.00 0.00 0.00 56 1005.1
20210508035050 45 112 0.0 1.0 0.00 0.00 0.00 57 1004.9
20210508034150 45 0 0.0 0.0 0.00 0.00 0.00 58 1004.9
20210508033250 46 0 0.0 0.0 0.00 0.00 0.00 53 1004.7
20210508032350 47 0 0.0 0.0 0.00 0.00 0.00 50 1004.4
20210508031450 49 0 0.0 0.0 0.00 0.00 0.00 46 1004.3
20210508030550 49 0 0.0 0.0 0.00 0.00 0.00 44 1004.4
20210508025650 50 0 0.0 0.0 0.00 0.00 0.00 43 1004.2
20210508024750 50 0 0.0 0.0 0.00 0.00 0.00 44 1004.2
20210508023850 50 270 0.0 2.0 0.00 0.00 0.00 45 1004.1
20210508022950 47 0 0.0 0.0 0.00 0.00 0.00 54 1003.9
20210508022050 47 0 0.0 0.0 0.00 0.00 0.00 54 1003.6
20210508021149 47 0 0.0 0.0 0.00 0.00 0.00 54 1003.2
20210508020249 47 0 0.0 0.0 0.00 0.00 0.00 52 1003.2
20210508015350 47 0 0.0 0.0 0.00 0.00 0.00 50 1003.0
20210508014449 49 0 0.0 0.0 0.00 0.00 0.00 46 1002.7
20210508013550 51 0 0.0 0.0 0.00 0.00 0.00 42 1002.5
20210508012650 52 0 0.0 0.0 0.00 0.00 0.00 39 1002.3
20210508011750 53 0 0.0 0.0 0.00 0.00 0.00 38 1002.2
20210508010849 53 0 0.0 0.0 0.00 0.00 0.00 35 1002.1
20210508005949 53 0 0.0 0.0 0.00 0.00 0.00 35 1002.0
20210508005050 53 181 0.0 1.0 0.00 0.00 0.00 34 1001.8
20210508004149 53 158 0.0 1.0 0.00 0.00 0.00 35 1001.8
20210508003249 52 0 0.0 0.0 0.00 0.00 0.00 35 1001.7
20210508002349 52 0 0.0 0.0 0.00 0.00 0.00 37 1001.6
20210508001449 52 0 0.0 0.0 0.00 0.00 0.00 38 1001.7
20210508000549 53 0 0.0 0.0 0.00 0.00 0.00 37 1001.7
20210507235649 53 0 0.0 0.0 0.00 0.00 0.00 36 1001.8
20210507234749 54 0 0.0 0.0 0.00 0.00 0.00 33 1001.5
20210507233849 54 147 0.0 1.0 0.00 0.00 0.00 32 1001.5
20210507232949 54 314 0.0 1.0 0.00 0.00 0.00 32 1001.3
20210507232049 54 135 0.0 1.0 0.00 0.00 0.00 32 1001.3
20210507231149 54 0 0.0 0.0 0.00 0.00 0.00 32 1001.3
20210507230249 55 172 0.0 3.0 0.00 0.00 0.00 30 1001.3
20210507225349 55 135 0.0 1.0 0.00 0.00 0.00 31 1001.0
20210507224449 55 112 0.0 1.0 0.00 0.00 0.00 30 1000.9
20210507223549 54 0 0.0 0.0 0.00 0.00 0.00 31 1000.8
20210507222649 55 0 0.0 0.0 0.00 0.00 0.00 31 1000.8
20210507221749 55 0 0.0 0.0 0.00 0.00 0.00 30 1000.4
20210507220849 55 0 0.0 0.0 0.00 0.00 0.00 31 1000.5
20210507215949 55 190 0.0 2.0 0.00 0.00 0.00 31 1000.3